Time;durP1;ratioP1;P1;durP2;ratioP2;P2;SDS_P1;SDS_P2;PMS_P1;PMS_P2;Temp;Humidity;BMP_temperature;BMP_pressure;BME280_temperature;BME280_humidity;BME280_pressure;Samples;Min_cycle;Max_cycle;Signal;HPM_P1;HPM_P2
2022/05/19 00:00:29;;;;;;;12.23;7.77;;;;;20.60;101320.00;;;;5020519;28;20252;-69
2022/05/19 00:03:15;;;;;;;11.10;7.13;;;;;20.50;101316.00;;;;5025694;28;20230;-69
2022/05/19 00:06:02;;;;;;;10.67;8.00;;;;;20.50;101319.00;;;;5026627;28;20241;-69
2022/05/19 00:08:50;;;;;;;8.97;6.93;;;;;20.40;101306.00;;;;5017742;28;20246;-70
2022/05/19 00:11:37;;;;;;;10.10;7.27;;;;;20.30;101310.00;;;;5001524;28;20307;-68
2022/05/19 00:14:23;;;;;;;10.10;7.60;;;;;20.30;101307.00;;;;5016562;28;20225;-68
2022/05/19 00:17:10;;;;;;;12.17;8.23;;;;;20.40;101298.00;;;;4993665;28;20365;-70
2022/05/19 00:19:56;;;;;;;10.83;8.13;;;;;20.20;101307.00;;;;5004522;28;20233;-68
2022/05/19 00:22:43;;;;;;;9.47;7.97;;;;;20.10;101311.00;;;;5024047;28;20236;-69
2022/05/19 00:25:30;;;;;;;10.00;8.80;;;;;20.10;101307.00;;;;5031321;28;20224;-71
2022/05/19 00:28:17;;;;;;;11.13;8.90;;;;;19.90;101310.00;;;;5026217;28;20225;-69
2022/05/19 00:31:04;;;;;;;10.67;8.13;;;;;19.90;101309.00;;;;5024013;28;20308;-70
2022/05/19 00:33:50;;;;;;;10.47;7.93;;;;;19.90;101307.00;;;;5026036;28;20241;-69
2022/05/19 00:36:37;;;;;;;9.57;7.77;;;;;19.90;101301.00;;;;5020524;28;20585;-71
2022/05/19 00:39:23;;;;;;;11.57;8.43;;;;;19.80;101301.00;;;;5023325;28;20225;-70
2022/05/19 00:45:22;;;;;;;9.83;7.83;;;;;19.70;101296.00;;;;5025272;28;20233;-68
2022/05/19 00:48:16;;;;;;;11.53;9.00;;;;;19.80;101291.00;;;;5021626;28;20249;-71
2022/05/19 00:51:07;;;;;;;12.37;8.70;;;;;19.80;101288.00;;;;5017889;28;20221;-69
2022/05/19 00:53:58;;;;;;;13.23;9.83;;;;;19.70;101293.00;;;;5019249;28;20240;-69
2022/05/19 00:56:48;;;;;;;13.97;9.73;;;;;19.70;101284.00;;;;5014143;28;20230;-68
2022/05/19 00:59:40;;;;;;;12.93;9.17;;;;;19.70;101287.00;;;;5019721;28;20776;-70
2022/05/19 01:02:31;;;;;;;12.37;8.70;;;;;19.50;101278.00;;;;5026038;28;20229;-70
2022/05/19 01:05:20;;;;;;;13.60;8.90;;;;;19.50;101284.00;;;;5025033;28;20346;-71
2022/05/19 01:08:12;;;;;;;12.67;8.93;;;;;19.50;101274.00;;;;5020271;28;20230;-70
2022/05/19 01:11:00;;;;;;;14.97;10.00;;;;;19.40;101280.00;;;;5007235;28;20342;-70
2022/05/19 01:13:46;;;;;;;12.60;9.20;;;;;19.50;101285.00;;;;5022394;28;20284;-70
2022/05/19 01:16:34;;;;;;;12.93;9.20;;;;;19.30;101271.00;;;;5018662;28;20229;-70
2022/05/19 01:19:27;;;;;;;15.70;9.93;;;;;19.40;101271.00;;;;5018265;28;20698;-71
2022/05/19 01:22:27;;;;;;;11.27;9.70;;;;;19.30;101282.00;;;;5014560;28;20226;-69
2022/05/19 01:25:23;;;;;;;13.60;9.70;;;;;19.30;101273.00;;;;5012319;28;20589;-69
2022/05/19 01:28:11;;;;;;;12.10;9.63;;;;;19.30;101263.00;;;;5015647;28;20349;-70
2022/05/19 01:30:57;;;;;;;13.17;9.43;;;;;19.20;101259.00;;;;5015564;28;20225;-69
2022/05/19 01:33:44;;;;;;;12.43;9.43;;;;;19.20;101249.00;;;;5019625;28;20304;-67
2022/05/19 01:36:30;;;;;;;15.17;10.83;;;;;19.20;101243.00;;;;5018476;28;20226;-69
2022/05/19 01:39:18;;;;;;;12.67;9.80;;;;;19.20;101256.00;;;;5024351;28;20229;-70
2022/05/19 01:42:18;;;;;;;13.50;9.43;;;;;19.20;101248.00;;;;5024931;28;20272;-70
2022/05/19 01:45:16;;;;;;;13.53;9.67;;;;;19.20;101245.00;;;;5024614;28;20225;-69
2022/05/19 01:48:08;;;;;;;14.83;10.80;;;;;19.20;101248.00;;;;5024739;28;20221;-69
2022/05/19 01:51:01;;;;;;;13.13;9.60;;;;;19.10;101244.00;;;;5019253;28;20226;-70
2022/05/19 01:53:54;;;;;;;11.97;9.30;;;;;19.10;101243.00;;;;5024029;28;20287;-71
2022/05/19 01:56:48;;;;;;;11.67;9.47;;;;;19.10;101242.00;;;;5029339;28;20228;-69
2022/05/19 01:59:41;;;;;;;12.10;8.97;;;;;19.00;101246.00;;;;5023610;28;20225;-68
2022/05/19 02:02:36;;;;;;;14.07;10.07;;;;;19.00;101238.00;;;;5023741;28;20229;-70
2022/05/19 02:05:35;;;;;;;12.77;9.87;;;;;19.00;101239.00;;;;5028489;28;20229;-69
2022/05/19 02:08:30;;;;;;;12.77;9.67;;;;;19.00;101242.00;;;;5023380;28;20226;-71
2022/05/19 02:11:23;;;;;;;13.50;9.43;;;;;19.00;101227.00;;;;5013043;28;20229;-67
2022/05/19 02:14:13;;;;;;;12.57;9.83;;;;;18.90;101237.00;;;;5006811;28;20273;-71
2022/05/19 02:17:02;;;;;;;13.03;9.40;;;;;18.80;101220.00;;;;5009116;28;20230;-70
2022/05/19 02:19:55;;;;;;;14.40;9.57;;;;;18.80;101233.00;;;;5004247;28;20276;-70
2022/05/19 02:22:44;;;;;;;12.93;9.50;;;;;18.80;101231.00;;;;5028720;28;20253;-69
2022/05/19 02:25:36;;;;;;;13.53;9.83;;;;;18.70;101215.00;;;;5001204;28;20332;-70
2022/05/19 02:28:27;;;;;;;14.50;9.63;;;;;18.70;101231.00;;;;5026219;28;20229;-69
2022/05/19 02:31:14;;;;;;;10.27;8.63;;;;;18.70;101219.00;;;;5028834;28;20233;-70
2022/05/19 02:34:00;;;;;;;14.63;9.37;;;;;18.70;101233.00;;;;5028488;28;20292;-70
2022/05/19 02:36:48;;;;;;;12.47;9.40;;;;;18.70;101225.00;;;;5025224;28;20264;-70
2022/05/19 02:39:34;;;;;;;13.60;8.87;;;;;18.50;101222.00;;;;5023664;28;20241;-69
2022/05/19 02:42:20;;;;;;;12.73;9.80;;;;;18.50;101225.00;;;;5028151;28;20277;-70
2022/05/19 02:45:08;;;;;;;13.80;9.43;;;;;18.50;101215.00;;;;5022085;28;20237;-70
2022/05/19 02:47:54;;;;;;;12.10;9.13;;;;;18.60;101222.00;;;;5028082;28;20327;-69
2022/05/19 02:50:42;;;;;;;14.43;9.20;;;;;18.50;101225.00;;;;5021952;28;20573;-71
2022/05/19 02:53:30;;;;;;;10.27;8.97;;;;;18.40;101220.00;;;;5019472;28;20257;-70
2022/05/19 02:56:16;;;;;;;10.80;8.17;;;;;18.40;101226.00;;;;5027681;28;20635;-70
2022/05/19 02:59:02;;;;;;;11.50;8.63;;;;;18.30;101219.00;;;;5024650;28;20241;-69
2022/05/19 03:01:49;;;;;;;11.93;8.90;;;;;18.30;101224.00;;;;5024832;28;20736;-69
2022/05/19 03:04:35;;;;;;;11.30;9.13;;;;;18.30;101221.00;;;;5026952;28;20226;-69
2022/05/19 03:07:22;;;;;;;11.10;9.10;;;;;18.20;101231.00;;;;5027747;28;20229;-70
2022/05/19 03:10:10;;;;;;;11.73;9.20;;;;;18.30;101221.00;;;;5025006;28;20233;-69
2022/05/19 03:12:56;;;;;;;11.60;8.63;;;;;18.20;101224.00;;;;5027780;28;20233;-69
2022/05/19 03:15:43;;;;;;;13.53;9.03;;;;;18.20;101224.00;;;;5021669;28;20662;-70
2022/05/19 03:18:29;;;;;;;11.53;8.80;;;;;18.10;101223.00;;;;5024448;28;20316;-70
2022/05/19 03:21:15;;;;;;;14.33;8.77;;;;;18.10;101231.00;;;;5007844;28;20229;-69
2022/05/19 03:24:02;;;;;;;15.77;8.53;;;;;18.10;101230.00;;;;5016132;28;20229;-70
2022/05/19 03:26:49;;;;;;;12.77;8.60;;;;;17.90;101230.00;;;;5013964;28;20225;-70
2022/05/19 03:29:35;;;;;;;13.60;8.27;;;;;18.00;101233.00;;;;5012557;28;20285;-70
2022/05/19 03:32:22;;;;;;;13.80;9.07;;;;;18.00;101233.00;;;;5015803;28;20233;-70
2022/05/19 03:35:09;;;;;;;11.33;8.57;;;;;18.00;101227.00;;;;5010184;28;20698;-69
2022/05/19 03:37:55;;;;;;;10.87;8.47;;;;;17.90;101240.00;;;;5017511;28;20702;-70
2022/05/19 03:40:42;;;;;;;12.57;8.93;;;;;17.90;101220.00;;;;5009843;28;20230;-70
2022/05/19 03:43:29;;;;;;;13.43;9.20;;;;;17.80;101235.00;;;;5007272;28;20222;-70
2022/05/19 03:46:16;;;;;;;9.63;7.87;;;;;17.70;101231.00;;;;5007937;28;20758;-70
2022/05/19 03:49:03;;;;;;;13.97;8.37;;;;;17.80;101232.00;;;;5011971;28;20230;-68
2022/05/19 03:51:49;;;;;;;11.07;8.30;;;;;17.80;101228.00;;;;5007735;28;20234;-70
2022/05/19 03:54:36;;;;;;;10.67;8.10;;;;;17.70;101230.00;;;;5007631;28;20589;-70
2022/05/19 03:57:23;;;;;;;10.33;7.53;;;;;17.70;101226.00;;;;5021155;28;20229;-69
2022/05/19 04:00:12;;;;;;;11.67;7.77;;;;;17.80;101223.00;;;;5006017;28;20774;-70
2022/05/19 04:02:59;;;;;;;11.67;8.07;;;;;17.70;101226.00;;;;5009870;28;20230;-70
2022/05/19 04:05:46;;;;;;;11.17;8.10;;;;;17.70;101231.00;;;;5010152;28;20229;-71
2022/05/19 04:08:32;;;;;;;9.10;7.47;;;;;17.70;101212.00;;;;5009318;28;20561;-71
2022/05/19 04:11:19;;;;;;;9.97;7.57;;;;;17.70;101221.00;;;;4987843;28;20707;-70
2022/05/19 04:14:05;;;;;;;11.87;8.37;;;;;17.80;101223.00;;;;4998191;28;20234;-69
2022/05/19 04:16:53;;;;;;;12.17;7.77;;;;;17.80;101222.00;;;;4993238;28;20221;-70
2022/05/19 04:19:39;;;;;;;10.17;7.60;;;;;17.80;101228.00;;;;4994943;28;20951;-70
2022/05/19 04:22:26;;;;;;;10.17;7.73;;;;;17.90;101235.00;;;;5006866;28;20238;-69
2022/05/19 04:25:13;;;;;;;10.10;7.27;;;;;17.90;101228.00;;;;5007019;28;20234;-70
2022/05/19 04:27:59;;;;;;;9.90;7.37;;;;;17.90;101230.00;;;;5007151;28;20249;-70
2022/05/19 04:30:45;;;;;;;9.10;7.20;;;;;17.90;101222.00;;;;5009631;28;20237;-70
2022/05/19 04:33:33;;;;;;;10.30;7.30;;;;;18.00;101231.00;;;;5008888;28;20218;-70
2022/05/19 04:36:20;;;;;;;9.93;7.63;;;;;18.00;101236.00;;;;5014595;28;20596;-70
2022/05/19 04:39:06;;;;;;;9.93;7.33;;;;;18.10;101224.00;;;;5008722;28;20230;-70
2022/05/19 04:41:52;;;;;;;8.57;6.77;;;;;18.20;101235.00;;;;5012552;28;20225;-70
2022/05/19 04:44:39;;;;;;;8.83;6.70;;;;;18.20;101228.00;;;;5010983;28;20258;-70
2022/05/19 04:47:26;;;;;;;8.63;6.80;;;;;18.20;101221.00;;;;5016224;28;20241;-71
2022/05/19 04:50:14;;;;;;;8.77;6.60;;;;;18.30;101226.00;;;;5000773;28;20229;-70
2022/05/19 04:53:01;;;;;;;7.60;6.70;;;;;18.40;101229.00;;;;5015579;28;20233;-69
2022/05/19 04:55:47;;;;;;;10.70;7.57;;;;;18.40;101230.00;;;;5006708;28;20861;-70
2022/05/19 04:58:34;;;;;;;8.47;6.77;;;;;18.40;101227.00;;;;5011755;28;20620;-71
2022/05/19 05:01:20;;;;;;;8.87;6.63;;;;;18.50;101236.00;;;;5016025;28;20241;-70
2022/05/19 05:04:07;;;;;;;8.70;6.97;;;;;18.60;101228.00;;;;5017680;28;20225;-72
2022/05/19 05:06:54;;;;;;;8.33;6.43;;;;;18.60;101226.00;;;;5006596;28;20221;-70
2022/05/19 05:09:41;;;;;;;11.57;6.83;;;;;18.80;101241.00;;;;4993811;28;20226;-69
2022/05/19 05:12:27;;;;;;;11.50;7.53;;;;;18.80;101227.00;;;;5004592;28;20740;-70
2022/05/19 05:15:14;;;;;;;9.57;7.37;;;;;18.90;101242.00;;;;4991496;28;20240;-70
2022/05/19 05:18:01;;;;;;;12.50;9.07;;;;;18.90;101237.00;;;;5011939;28;20225;-70
2022/05/19 05:20:47;;;;;;;9.43;7.40;;;;;19.10;101236.00;;;;5004750;28;20237;-69
2022/05/19 05:23:35;;;;;;;9.60;6.33;;;;;19.10;101235.00;;;;5005346;28;20273;-71
2022/05/19 05:26:21;;;;;;;8.97;6.10;;;;;19.30;101237.00;;;;5004756;28;20280;-71
2022/05/19 05:29:08;;;;;;;10.50;6.33;;;;;19.40;101235.00;;;;5005722;28;20714;-70
2022/05/19 05:31:54;;;;;;;7.80;6.33;;;;;19.40;101245.00;;;;5005751;28;20226;-70
2022/05/19 05:34:40;;;;;;;8.33;6.40;;;;;19.50;101269.00;;;;5013553;28;20362;-70
2022/05/19 05:37:27;;;;;;;7.23;6.20;;;;;19.60;101314.00;;;;5004954;28;20233;-71
2022/05/19 05:40:15;;;;;;;6.83;5.70;;;;;19.70;101293.00;;;;5007493;28;20237;-69
2022/05/19 05:43:08;;;;;;;5.57;4.37;;;;;19.80;101282.00;;;;5004967;28;20250;-71
2022/05/19 05:46:05;;;;;;;7.73;5.03;;;;;19.90;101324.00;;;;5007524;28;20292;-70
2022/05/19 05:48:52;;;;;;;6.60;4.87;;;;;20.20;101328.00;;;;5005497;28;20225;-70
2022/05/19 05:51:38;;;;;;;5.17;4.50;;;;;20.10;101269.00;;;;5021894;28;20801;-70
2022/05/19 05:54:24;;;;;;;5.87;4.40;;;;;20.10;101303.00;;;;5021443;28;20254;-69
2022/05/19 05:57:15;;;;;;;9.40;4.60;;;;;20.30;101306.00;;;;5009796;28;20230;-67
2022/05/19 06:00:02;;;;;;;5.33;3.97;;;;;20.20;101318.00;;;;5024928;28;20292;-70
2022/05/19 06:02:49;;;;;;;5.07;4.17;;;;;20.20;101328.00;;;;5018171;28;20356;-69
2022/05/19 06:05:35;;;;;;;6.73;4.50;;;;;20.30;101279.00;;;;5024319;28;20237;-71
2022/05/19 06:08:21;;;;;;;5.97;4.30;;;;;20.50;101313.00;;;;5019887;28;20770;-71
2022/05/19 06:11:08;;;;;;;6.07;4.53;;;;;20.50;101350.00;;;;5010001;28;20273;-71
2022/05/19 06:13:56;;;;;;;5.80;4.30;;;;;20.70;101300.00;;;;5018364;28;20229;-71
2022/05/19 06:16:42;;;;;;;6.93;4.20;;;;;20.90;101331.00;;;;5024891;28;20686;-71
2022/05/19 06:19:29;;;;;;;5.73;4.00;;;;;21.10;101310.00;;;;5024260;28;20226;-70
2022/05/19 06:22:15;;;;;;;8.57;3.87;;;;;21.30;101307.00;;;;5024690;28;20793;-69
2022/05/19 06:25:02;;;;;;;4.97;4.20;;;;;21.70;101318.00;;;;5024633;28;20713;-70
2022/05/19 06:27:49;;;;;;;4.83;4.30;;;;;21.80;101306.00;;;;5017503;28;20230;-70
2022/05/19 06:30:37;;;;;;;6.83;4.33;;;;;21.90;101301.00;;;;5024461;28;20250;-68
2022/05/19 06:33:23;;;;;;;5.67;4.23;;;;;22.00;101297.00;;;;5021618;28;20629;-69
2022/05/19 06:36:10;;;;;;;6.03;4.10;;;;;22.10;101289.00;;;;5024200;28;20222;-69
2022/05/19 06:38:57;;;;;;;4.87;3.90;;;;;22.10;101299.00;;;;5019766;28;20231;-68
2022/05/19 06:42:01;;;;;;;3.90;3.37;;;;;22.10;101309.00;;;;5028430;28;20247;-69
2022/05/19 06:44:48;;;;;;;5.33;3.83;;;;;22.20;101313.00;;;;5007614;28;20236;-69
2022/05/19 06:47:36;;;;;;;8.67;4.30;;;;;22.30;101306.00;;;;5007673;28;20247;-70
2022/05/19 06:50:23;;;;;;;6.13;3.73;;;;;22.40;101301.00;;;;5008406;28;20236;-70
2022/05/19 06:53:09;;;;;;;7.30;3.97;;;;;22.40;101306.00;;;;5034599;28;20228;-70
2022/05/19 06:55:55;;;;;;;6.40;4.37;;;;;22.40;101310.00;;;;5021928;28;20228;-69
2022/05/19 06:58:41;;;;;;;7.53;4.10;;;;;22.50;101303.00;;;;5028207;28;20232;-70
2022/05/19 07:01:28;;;;;;;9.23;4.00;;;;;22.70;101294.00;;;;5027127;28;20240;-70
2022/05/19 07:04:16;;;;;;;8.20;3.77;;;;;22.80;101315.00;;;;5027316;28;20270;-70
2022/05/19 07:07:04;;;;;;;5.57;4.00;;;;;23.00;101307.00;;;;5022411;28;20713;-69
2022/05/19 07:09:51;;;;;;;6.63;4.37;;;;;23.00;101304.00;;;;5012150;28;20304;-69
2022/05/19 07:12:38;;;;;;;6.50;4.03;;;;;23.00;101307.00;;;;5001278;28;20284;-70
2022/05/19 07:15:26;;;;;;;4.27;3.87;;;;;23.00;101308.00;;;;5024910;28;20308;-70
2022/05/19 07:18:12;;;;;;;3.77;3.40;;;;;23.10;101308.00;;;;5011710;28;20248;-71
2022/05/19 07:20:58;;;;;;;6.33;4.00;;;;;23.10;101307.00;;;;4997045;28;20416;-70
2022/05/19 07:23:46;;;;;;;4.10;3.70;;;;;23.10;101313.00;;;;4999725;28;20229;-70
2022/05/19 07:26:32;;;;;;;4.53;3.73;;;;;23.10;101296.00;;;;5025715;28;20253;-71
2022/05/19 07:29:19;;;;;;;4.80;3.60;;;;;23.00;101293.00;;;;5026961;28;20231;-70
2022/05/19 07:32:07;;;;;;;5.07;4.10;;;;;23.00;101301.00;;;;5026257;28;20237;-70
2022/05/19 07:34:56;;;;;;;5.57;4.20;;;;;23.10;101287.00;;;;5020196;28;20368;-69
2022/05/19 07:37:43;;;;;;;5.40;3.87;;;;;23.10;101287.00;;;;5026733;28;20221;-69
2022/05/19 07:40:30;;;;;;;5.37;3.93;;;;;23.10;101274.00;;;;5026550;28;20238;-70
2022/05/19 07:46:19;;;;;;;6.17;3.80;;;;;23.40;101277.00;;;;5026478;28;20363;-71
2022/05/19 07:49:05;;;;;;;4.73;3.70;;;;;23.40;101271.00;;;;5026569;28;20248;-68
2022/05/19 07:51:52;;;;;;;5.10;3.80;;;;;23.50;101268.00;;;;5019556;28;20230;-70
2022/05/19 07:54:40;;;;;;;5.80;4.20;;;;;23.50;101266.00;;;;5022898;28;20596;-71
2022/05/19 07:57:27;;;;;;;9.13;4.20;;;;;23.50;101270.00;;;;5026159;28;20230;-70
2022/05/19 08:00:15;;;;;;;4.33;3.53;;;;;23.50;101262.00;;;;5026835;28;20237;-69
2022/05/19 08:03:01;;;;;;;6.40;4.20;;;;;23.50;101262.00;;;;5022752;28;20226;-70
2022/05/19 08:05:47;;;;;;;7.53;4.00;;;;;23.60;101254.00;;;;5018866;28;20921;-71
2022/05/19 08:08:35;;;;;;;7.23;4.03;;;;;23.70;101245.00;;;;5019652;28;20250;-69
2022/05/19 08:11:23;;;;;;;7.40;4.37;;;;;23.80;101245.00;;;;4992987;28;20300;-70
2022/05/19 08:17:33;;;;;;;7.90;3.37;;;;;23.90;101245.00;;;;5018852;28;20261;-70
2022/05/19 08:20:19;;;;;;;4.87;3.60;;;;;24.00;101236.00;;;;5015132;28;20379;-69
2022/05/19 08:23:08;;;;;;;5.63;3.73;;;;;24.00;101236.00;;;;5014761;28;20240;-71
2022/05/19 08:25:55;;;;;;;5.00;3.80;;;;;24.10;101231.00;;;;5026112;28;20233;-70
2022/05/19 08:28:50;;;;;;;6.70;4.00;;;;;24.10;101236.00;;;;5017906;28;20285;-71
2022/05/19 08:31:38;;;;;;;6.33;4.00;;;;;24.00;101233.00;;;;5006139;28;20242;-71
2022/05/19 08:34:25;;;;;;;5.13;3.60;;;;;24.00;101227.00;;;;5005528;28;20241;-71
2022/05/19 08:37:11;;;;;;;6.93;3.70;;;;;24.10;101221.00;;;;5001561;28;20301;-71
2022/05/19 08:39:57;;;;;;;7.07;3.70;;;;;24.20;101219.00;;;;5005075;28;20276;-71
2022/05/19 08:42:48;;;;;;;5.27;3.43;;;;;24.30;101221.00;;;;5024618;28;20236;-70
2022/05/19 08:45:40;;;;;;;4.83;3.50;;;;;24.50;101218.00;;;;5025680;28;20249;-67
2022/05/19 08:48:29;;;;;;;6.63;3.70;;;;;24.80;101209.00;;;;5025205;28;20233;-70
2022/05/19 08:51:17;;;;;;;5.30;3.80;;;;;24.70;101182.00;;;;5018967;28;20233;-70
2022/05/19 08:54:05;;;;;;;5.33;3.70;;;;;24.80;101194.00;;;;5012972;28;20734;-69
2022/05/19 08:56:58;;;;;;;4.23;3.60;;;;;24.80;101186.00;;;;5011207;28;20310;-70
2022/05/19 08:59:53;;;;;;;5.70;3.30;;;;;25.00;101186.00;;;;5013656;28;20708;-71
2022/05/19 09:02:45;;;;;;;3.80;3.40;;;;;24.90;101182.00;;;;5015581;28;20358;-71
2022/05/19 09:05:46;;;;;;;4.20;3.63;;;;;25.00;101180.00;;;;5010312;28;20400;-72
2022/05/19 09:08:46;;;;;;;7.30;3.23;;;;;25.10;101170.00;;;;5007272;28;20234;-69
2022/05/19 09:11:39;;;;;;;5.50;3.63;;;;;25.30;101175.00;;;;5018049;28;20768;-70
2022/05/19 09:14:29;;;;;;;3.57;3.10;;;;;25.30;101171.00;;;;5018030;28;20232;-71
2022/05/19 09:17:15;;;;;;;6.33;3.67;;;;;25.30;101179.00;;;;5021526;28;20229;-69
2022/05/19 09:20:07;;;;;;;5.13;3.57;;;;;25.20;101172.00;;;;5019258;28;20236;-70
2022/05/19 09:23:00;;;;;;;3.47;3.00;;;;;25.20;101165.00;;;;5017788;28;20277;-70
2022/05/19 09:25:50;;;;;;;5.37;3.50;;;;;25.40;101180.00;;;;5024615;28;20237;-70
2022/05/19 09:28:37;;;;;;;6.73;3.43;;;;;25.60;101165.00;;;;5025926;28;20245;-70
2022/05/19 09:31:34;;;;;;;5.47;3.50;;;;;25.60;101169.00;;;;5026130;28;20748;-67
2022/05/19 09:34:24;;;;;;;6.67;3.57;;;;;25.80;101167.00;;;;5021515;28;20237;-68
2022/05/19 09:37:15;;;;;;;5.87;3.37;;;;;25.80;101164.00;;;;5020203;28;20237;-71
2022/05/19 09:40:19;;;;;;;4.70;3.17;;;;;25.70;101165.00;;;;5007188;28;20955;-70
2022/05/19 09:43:28;;;;;;;5.80;3.50;;;;;26.00;101156.00;;;;5002893;28;20238;-69
2022/05/19 09:46:16;;;;;;;3.73;3.30;;;;;26.20;101162.00;;;;5021103;28;20284;-69
2022/05/19 09:49:06;;;;;;;4.40;3.37;;;;;26.60;101171.00;;;;5017455;28;20225;-68
2022/05/19 09:51:52;;;;;;;5.70;3.37;;;;;26.80;101162.00;;;;5020660;28;20229;-73
2022/05/19 09:54:41;;;;;;;5.17;3.57;;;;;26.80;101164.00;;;;5050216;28;20244;-72
2022/05/19 09:57:43;;;;;;;6.70;3.30;;;;;27.00;101160.00;;;;5049927;28;20237;-71
2022/05/19 10:00:36;;;;;;;4.90;3.27;;;;;27.10;101173.00;;;;5052866;28;20257;-73
2022/05/19 10:03:26;;;;;;;5.93;3.55;;;;;27.20;101171.00;;;;5050815;28;20245;-71
2022/05/19 10:06:18;;;;;;;4.07;3.20;;;;;27.40;101176.00;;;;5048272;28;20292;-70
2022/05/19 10:09:09;;;;;;;4.53;3.50;;;;;27.40;101167.00;;;;5042019;28;20290;-70
2022/05/19 10:12:08;;;;;;;3.90;3.50;;;;;27.80;101172.00;;;;5025974;28;20217;-71
2022/05/19 10:15:00;;;;;;;5.47;3.35;;;;;27.90;101165.00;;;;5037162;28;20238;-70
2022/05/19 10:18:00;;;;;;;3.80;3.40;;;;;28.20;101170.00;;;;5051472;28;20302;-73
2022/05/19 10:21:09;;;;;;;4.20;3.45;;;;;28.30;101156.00;;;;5009095;28;20273;-69
2022/05/19 10:24:14;;;;;;;3.40;3.08;;;;;28.20;101158.00;;;;5003164;28;20249;-69
2022/05/19 10:33:35;;;;;;;5.10;3.20;;;;;28.90;101132.00;;;;5024194;28;20236;-69
2022/05/19 10:36:27;;;;;;;6.97;3.40;;;;;28.90;101140.00;;;;5017012;28;20246;-71
2022/05/19 10:39:39;;;;;;;5.00;3.50;;;;;29.30;101131.00;;;;5023224;28;20320;-69
2022/05/19 10:42:37;;;;;;;4.20;3.45;;;;;29.30;101130.00;;;;5028372;28;20742;-67
2022/05/19 10:45:27;;;;;;;4.60;3.22;;;;;29.50;101122.00;;;;5024430;28;20241;-69
2022/05/19 10:48:39;;;;;;;4.25;3.63;;;;;29.70;101099.00;;;;5025163;28;20292;-68
2022/05/19 10:51:39;;;;;;;3.65;3.22;;;;;29.90;101095.00;;;;5024039;28;20353;-69
2022/05/19 10:54:41;;;;;;;4.55;3.20;;;;;30.00;101091.00;;;;5023882;28;20233;-67
2022/05/19 10:57:48;;;;;;;3.85;3.03;;;;;29.90;101072.00;;;;5016489;28;20233;-69
2022/05/19 11:00:47;;;;;;;3.38;2.92;;;;;30.20;101064.00;;;;5019319;28;20232;-71
2022/05/19 11:03:53;;;;;;;4.00;3.47;;;;;30.30;101084.00;;;;5026582;28;20245;-69
2022/05/19 11:06:52;;;;;;;3.70;3.40;;;;;30.40;101076.00;;;;5027114;28;20224;-72
2022/05/19 11:09:44;;;;;;;4.10;3.40;;;;;30.50;101069.00;;;;5012355;28;20225;-70
2022/05/19 11:12:37;;;;;;;4.55;3.38;;;;;30.60;101070.00;;;;5006993;28;20300;-70
2022/05/19 11:15:36;;;;;;;4.18;3.22;;;;;30.90;101067.00;;;;5019978;28;20234;-69
2022/05/19 11:18:26;;;;;;;4.25;2.95;;;;;30.70;101069.00;;;;5022620;28;20233;-70
2022/05/19 11:21:16;;;;;;;4.78;3.47;;;;;30.30;101084.00;;;;5019601;28;20229;-71
2022/05/19 11:24:06;;;;;;;4.35;3.42;;;;;29.90;101081.00;;;;5020762;28;20253;-70
2022/05/19 11:27:00;;;;;;;3.88;3.30;;;;;29.70;101079.00;;;;5016199;28;20832;-70
2022/05/19 11:29:52;;;;;;;4.75;3.03;;;;;29.70;101076.00;;;;5013774;28;20247;-69
2022/05/19 11:32:40;;;;;;;6.72;3.72;;;;;29.50;101084.00;;;;5016241;28;20229;-70
2022/05/19 11:35:35;;;;;;;3.60;3.30;;;;;29.30;101088.00;;;;5016572;28;21786;-70
2022/05/19 11:38:26;;;;;;;3.92;3.35;;;;;29.50;101073.00;;;;5027643;28;20229;-70
2022/05/19 11:41:18;;;;;;;7.50;3.40;;;;;29.60;101050.00;;;;5026350;28;20699;-70
2022/05/19 11:44:10;;;;;;;3.50;3.20;;;;;29.30;101070.00;;;;5024216;28;20363;-71
2022/05/19 11:47:01;;;;;;;3.63;3.17;;;;;29.70;101064.00;;;;5026876;28;20249;-71
2022/05/19 11:56:09;;;;;;;4.40;3.00;;;;;30.80;101063.00;;;;5026694;28;20237;-72
2022/05/19 11:58:57;;;;;;;3.90;2.92;;;;;31.20;101052.00;;;;5025827;28;20225;-75
2022/05/19 12:01:49;;;;;;;3.95;3.25;;;;;31.50;101038.00;;;;5018775;28;20225;-74
2022/05/19 12:04:38;;;;;;;3.55;2.90;;;;;31.60;101033.00;;;;5018515;28;20234;-73
2022/05/19 12:07:38;;;;;;;4.45;3.03;;;;;31.70;101026.00;;;;5020714;28;20234;-74
2022/05/19 12:10:26;;;;;;;5.03;3.03;;;;;31.80;101020.00;;;;5021025;28;20228;-74
2022/05/19 12:13:13;;;;;;;4.18;3.10;;;;;32.20;101017.00;;;;5015918;28;20346;-73
2022/05/19 12:16:08;;;;;;;3.30;3.00;;;;;32.50;101012.00;;;;5018793;28;20244;-74
2022/05/19 12:19:05;;;;;;;4.43;3.03;;;;;32.70;101003.00;;;;5017099;28;20867;-72
2022/05/19 12:21:54;;;;;;;4.38;3.28;;;;;32.60;101005.00;;;;5004582;28;20699;-71
2022/05/19 12:24:52;;;;;;;7.05;3.65;;;;;32.40;100996.00;;;;5009508;28;20238;-71
2022/05/19 12:27:44;;;;;;;3.63;3.33;;;;;32.50;100988.00;;;;5005903;28;20230;-71
2022/05/19 12:33:39;;;;;;;3.22;2.97;;;;;32.90;100990.00;;;;5021078;28;20299;-71
2022/05/19 12:36:32;;;;;;;4.55;3.67;;;;;33.00;100992.00;;;;5008064;28;20376;-69
2022/05/19 12:39:31;;;;;;;4.47;3.30;;;;;32.80;100985.00;;;;5022088;28;20225;-68
2022/05/19 12:42:41;;;;;;;3.88;3.30;;;;;32.70;100993.00;;;;5022268;28;20253;-69
2022/05/19 12:45:28;;;;;;;3.30;3.00;;;;;32.50;100986.00;;;;5025993;28;20233;-71
2022/05/19 12:48:38;;;;;;;7.22;3.30;;;;;32.30;100991.00;;;;5026024;28;20279;-71
2022/05/19 12:51:45;;;;;;;3.40;3.05;;;;;32.00;101007.00;;;;4996912;28;20272;-69
2022/05/19 12:54:34;;;;;;;4.53;3.42;;;;;31.50;101029.00;;;;5001953;28;20638;-69
2022/05/19 12:57:28;;;;;;;4.00;3.10;;;;;31.40;101039.00;;;;5022643;28;20711;-69
2022/05/19 13:00:22;;;;;;;4.70;3.20;;;;;31.20;101048.00;;;;5000323;28;20250;-70
2022/05/19 13:03:12;;;;;;;5.00;3.15;;;;;30.80;101053.00;;;;5018180;28;20237;-68
2022/05/19 13:06:05;;;;;;;5.15;3.78;;;;;30.30;101060.00;;;;5005522;28;20234;-71
2022/05/19 13:08:54;;;;;;;3.97;3.58;;;;;29.90;101064.00;;;;5014330;28;20281;-71
2022/05/19 13:11:47;;;;;;;3.33;2.90;;;;;29.70;101079.00;;;;5005677;28;20230;-70
2022/05/19 13:14:38;;;;;;;3.58;3.28;;;;;29.20;101133.00;;;;5005239;28;20297;-70
2022/05/19 13:17:34;;;;;;;3.83;3.30;;;;;29.10;101211.00;;;;5000908;28;20289;-68
2022/05/19 13:20:23;;;;;;;12.60;2.53;;;;;27.90;101242.00;;;;5002495;28;20285;-69
2022/05/19 13:23:30;;;;;;;24.02;2.15;;;;;26.50;101284.00;;;;5000256;28;20250;-70
2022/05/19 13:26:23;;;;;;;18.10;1.83;;;;;25.50;101280.00;;;;5025486;28;20245;-69
2022/05/19 13:32:24;;;;;;;18.63;1.50;;;;;23.70;101286.00;;;;5014959;28;20764;-69
2022/05/19 13:35:15;;;;;;;4.50;0.80;;;;;22.90;101289.00;;;;5017828;28;20233;-69
2022/05/19 13:38:15;;;;;;;5.47;1.20;;;;;22.60;101275.00;;;;5025078;28;20333;-69
2022/05/19 13:41:04;;;;;;;5.93;1.10;;;;;22.10;101297.00;;;;5024780;28;20231;-70
2022/05/19 13:43:51;;;;;;;5.07;0.93;;;;;21.90;101282.00;;;;5024268;28;20244;-69
2022/05/19 13:46:38;;;;;;;6.70;1.10;;;;;21.60;101277.00;;;;5023707;28;20239;-72
2022/05/19 13:49:28;;;;;;;1.17;0.80;;;;;21.60;101279.00;;;;5026638;28;20596;-73
2022/05/19 13:52:17;;;;;;;3.43;1.07;;;;;21.40;101272.00;;;;5023764;28;20225;-71
2022/05/19 13:55:04;;;;;;;9.57;1.40;;;;;21.50;101315.00;;;;5017241;28;20301;-72
2022/05/19 13:57:52;;;;;;;2.40;1.20;;;;;21.40;101314.00;;;;5019936;28;20441;-72
2022/05/19 14:00:39;;;;;;;2.87;1.10;;;;;21.40;101305.00;;;;5018362;28;20298;-71
2022/05/19 14:03:26;;;;;;;4.37;1.20;;;;;21.50;101304.00;;;;5028877;28;20242;-72
2022/05/19 14:06:12;;;;;;;3.67;1.10;;;;;21.30;101306.00;;;;5022614;28;20235;-70
2022/05/19 14:09:01;;;;;;;3.77;1.30;;;;;21.20;101291.00;;;;5020201;28;20290;-71
2022/05/19 14:11:48;;;;;;;1.27;1.00;;;;;21.20;101291.00;;;;5004421;28;20377;-70
2022/05/19 14:14:34;;;;;;;2.07;1.30;;;;;21.10;101299.00;;;;4997376;28;20256;-71
2022/05/19 14:17:40;;;;;;;2.27;1.27;;;;;21.00;101289.00;;;;4998548;28;20226;-73
2022/05/19 14:20:34;;;;;;;1.97;1.33;;;;;21.20;101280.00;;;;5015369;28;20754;-72
2022/05/19 14:23:23;;;;;;;4.60;1.10;;;;;21.20;101265.00;;;;4999188;28;20330;-72
2022/05/19 14:26:12;;;;;;;2.40;1.27;;;;;21.10;101277.00;;;;5022123;28;20235;-71